createdAt,value
2024-04-25T00:00:28.522Z,9.16
2024-04-25T00:02:55.373Z,9.11
2024-04-25T00:05:22.236Z,9.15
2024-04-25T00:07:48.905Z,9.21
2024-04-25T00:10:15.542Z,9.28
2024-04-25T00:12:42.169Z,9.27
2024-04-25T00:15:08.758Z,9.35
2024-04-25T00:17:35.440Z,9.32
2024-04-25T00:20:02.064Z,8.76
2024-04-25T00:22:28.682Z,8.65
2024-04-25T00:24:55.289Z,8.31
2024-04-25T00:27:21.964Z,8.23
2024-04-25T00:29:48.579Z,8.57
2024-04-25T00:32:15.209Z,8.73
2024-04-25T00:34:41.775Z,8.74
2024-04-25T00:37:08.861Z,8.94
2024-04-25T00:39:36.240Z,9.04
2024-04-25T00:42:03.282Z,9.12
2024-04-25T00:44:30.398Z,8.98
2024-04-25T00:46:57.625Z,9.08
2024-04-25T00:49:24.757Z,8.95
2024-04-25T00:51:51.766Z,9.00
2024-04-25T00:54:18.793Z,8.89
2024-04-25T00:56:45.870Z,8.48
2024-04-25T00:59:12.977Z,8.17
2024-04-25T01:01:40.346Z,8.59
2024-04-25T01:04:07.508Z,8.85
2024-04-25T01:06:34.665Z,8.99
2024-04-25T01:09:04.295Z,9.12
2024-04-25T01:11:31.347Z,9.28
2024-04-25T01:13:58.374Z,9.31
2024-04-25T01:16:25.401Z,9.28
2024-04-25T01:18:52.440Z,9.21
2024-04-25T01:21:19.466Z,9.28
2024-04-25T01:23:46.479Z,9.18
2024-04-25T01:26:13.634Z,9.33
2024-04-25T01:28:40.686Z,9.43
2024-04-25T01:31:07.739Z,9.57
2024-04-25T01:33:34.921Z,9.62
2024-04-25T01:36:01.971Z,9.25
2024-04-25T01:38:29.008Z,9.12
2024-04-25T01:40:56.079Z,9.39
2024-04-25T01:43:23.114Z,9.59
2024-04-25T01:45:50.146Z,9.53
2024-04-25T01:48:17.454Z,9.51
2024-04-25T01:50:44.695Z,9.55
2024-04-25T01:53:11.836Z,9.48
2024-04-25T01:55:38.874Z,9.45
2024-04-25T01:58:05.902Z,9.46
2024-04-25T02:00:32.929Z,9.33
2024-04-25T02:03:00.034Z,9.54
2024-04-25T02:05:27.097Z,9.62
2024-04-25T02:07:54.158Z,9.70
2024-04-25T02:10:21.214Z,9.70
2024-04-25T02:12:48.191Z,9.76
2024-04-25T02:15:15.564Z,9.99
2024-04-25T02:17:42.703Z,9.76
2024-04-25T02:20:09.765Z,9.71
2024-04-25T02:22:36.813Z,9.75
2024-04-25T02:25:03.786Z,9.55
2024-04-25T02:27:30.767Z,9.49
2024-04-25T02:29:57.783Z,9.59
2024-04-25T02:32:24.794Z,9.67
2024-04-25T02:34:51.840Z,9.69
2024-04-25T02:37:18.911Z,9.78
2024-04-25T02:39:45.989Z,9.91
2024-04-25T02:42:13.059Z,9.91
2024-04-25T02:44:40.123Z,9.90
2024-04-25T02:47:07.162Z,9.95
2024-04-25T02:49:34.212Z,9.97
2024-04-25T02:52:01.209Z,10.09
2024-04-25T02:54:28.219Z,9.98
2024-04-25T02:56:55.248Z,9.80
2024-04-25T02:59:22.261Z,9.66
2024-04-25T03:01:49.345Z,9.89
2024-04-25T03:04:16.404Z,9.87
2024-04-25T03:06:43.436Z,9.97
2024-04-25T03:09:10.486Z,10.00
2024-04-25T03:11:37.603Z,10.08
2024-04-25T03:14:04.731Z,10.05
2024-04-25T03:16:31.743Z,10.05
2024-04-25T03:18:58.835Z,9.82
2024-04-25T03:21:25.902Z,9.90
2024-04-25T03:23:52.897Z,9.75
2024-04-25T03:26:19.935Z,9.61
2024-04-25T03:28:47.091Z,9.59
2024-04-25T03:31:15.653Z,9.36
2024-04-25T03:33:43.971Z,9.29
2024-04-25T03:36:11.126Z,9.32
2024-04-25T03:38:38.307Z,9.50
2024-04-25T03:41:05.459Z,9.65
2024-04-25T03:43:32.557Z,9.15
2024-04-25T03:45:59.579Z,9.45
2024-04-25T03:48:26.675Z,9.61
2024-04-25T03:50:53.899Z,9.73
2024-04-25T03:53:20.993Z,9.74
2024-04-25T03:55:48.016Z,9.92
2024-04-25T03:58:15.011Z,9.79
2024-04-25T04:00:42.043Z,9.81
2024-04-25T04:03:09.125Z,9.88
2024-04-25T04:05:36.248Z,9.75
2024-04-25T04:08:03.681Z,9.74
2024-04-25T04:10:30.744Z,9.70
2024-04-25T04:12:57.755Z,9.75
2024-04-25T04:15:24.794Z,9.86
2024-04-25T04:17:51.878Z,9.86
2024-04-25T04:20:18.969Z,9.94
2024-04-25T04:22:46.008Z,10.02
2024-04-25T04:25:12.985Z,10.04
2024-04-25T04:27:39.958Z,9.98
2024-04-25T04:30:06.975Z,10.01
2024-04-25T04:32:34.385Z,9.97
2024-04-25T04:35:01.497Z,9.83
2024-04-25T04:37:28.480Z,9.91
2024-04-25T04:39:55.479Z,10.02
2024-04-25T04:42:22.533Z,9.87
2024-04-25T04:44:50.510Z,9.88
2024-04-25T04:47:17.784Z,9.93
2024-04-25T04:49:44.861Z,9.95
2024-04-25T04:52:11.837Z,10.08
2024-04-25T04:54:38.853Z,10.11
2024-04-25T04:57:05.861Z,10.04
2024-04-25T04:59:32.898Z,10.01
2024-04-25T05:02:00.056Z,9.73
2024-04-25T05:04:27.136Z,9.56
2024-04-25T05:06:54.113Z,9.77
2024-04-25T05:09:21.119Z,9.54
2024-04-25T05:11:48.252Z,9.53
2024-04-25T05:14:15.408Z,9.56
2024-04-25T05:16:42.464Z,9.71
2024-04-25T05:19:09.548Z,9.74
2024-04-25T05:21:36.563Z,9.90
2024-04-25T05:24:03.593Z,9.94
2024-04-25T05:26:30.651Z,9.92
2024-04-25T05:28:57.652Z,10.03
2024-04-25T05:31:24.634Z,9.87
2024-04-25T05:33:51.712Z,9.55
2024-04-25T05:36:18.805Z,9.52
2024-04-25T05:38:45.808Z,8.96
2024-04-25T05:41:12.897Z,8.91
2024-04-25T05:43:39.887Z,8.67
2024-04-25T05:46:06.952Z,8.73
2024-04-25T05:48:34.324Z,8.78
2024-04-25T05:51:01.601Z,8.63
2024-04-25T05:53:28.885Z,8.51
2024-04-25T05:55:56.107Z,8.81
2024-04-25T05:58:23.149Z,8.99
2024-04-25T06:00:50.197Z,8.49
2024-04-25T06:03:17.413Z,8.51
2024-04-25T06:05:44.559Z,8.60
2024-04-25T06:08:11.640Z,8.68
2024-04-25T06:10:38.798Z,8.79
2024-04-25T06:13:05.948Z,8.80
2024-04-25T06:15:33.012Z,9.02
2024-04-25T06:18:00.118Z,9.38
2024-04-25T06:20:27.220Z,9.21
2024-04-25T06:22:54.265Z,9.45
2024-04-25T06:25:21.323Z,9.06
2024-04-25T06:27:48.610Z,9.39
2024-04-25T06:30:15.744Z,9.56
2024-04-25T06:32:42.987Z,9.63
2024-04-25T06:35:10.198Z,9.75
2024-04-25T06:37:37.291Z,9.94
2024-04-25T06:40:04.296Z,10.24
2024-04-25T06:42:31.306Z,10.30
2024-04-25T06:44:58.322Z,10.34
2024-04-25T06:47:25.468Z,10.34
2024-04-25T06:49:52.501Z,10.49
2024-04-25T06:52:19.498Z,10.75
2024-04-25T06:54:46.541Z,10.50
2024-04-25T06:57:13.560Z,10.69
2024-04-25T06:59:42.925Z,10.45
2024-04-25T07:02:11.767Z,10.79
2024-04-25T07:04:38.817Z,10.55
2024-04-25T07:07:05.820Z,9.94
2024-04-25T07:09:32.816Z,9.98
2024-04-25T07:11:59.875Z,9.97
2024-04-25T07:14:26.944Z,10.31
2024-04-25T07:16:53.962Z,10.50
2024-04-25T07:19:20.963Z,10.57
2024-04-25T07:21:47.978Z,10.86
2024-04-25T07:24:14.950Z,11.07
2024-04-25T07:26:42.083Z,11.23
2024-04-25T07:29:09.128Z,11.23
2024-04-25T07:31:36.172Z,11.25
2024-04-25T07:34:03.236Z,10.86
2024-04-25T07:36:30.236Z,11.30
2024-04-25T07:38:57.304Z,11.39
2024-04-25T07:41:24.402Z,11.54
2024-04-25T07:43:51.369Z,11.57
2024-04-25T07:46:18.852Z,11.56
2024-04-25T07:48:46.236Z,11.45
2024-04-25T07:51:13.317Z,11.35
2024-04-25T07:53:40.496Z,11.52
2024-04-25T07:56:07.573Z,11.34
2024-04-25T07:58:34.565Z,11.52
2024-04-25T08:01:01.607Z,11.45
2024-04-25T08:03:28.697Z,11.25
2024-04-25T08:05:55.805Z,11.33
2024-04-25T08:08:25.767Z,11.08
2024-04-25T08:10:53.380Z,10.26
2024-04-25T08:13:20.459Z,10.43
2024-04-25T08:15:47.581Z,10.01
2024-04-25T08:18:14.782Z,10.39
2024-04-25T08:20:41.991Z,10.36
2024-04-25T08:23:09.178Z,10.47
2024-04-25T08:25:36.336Z,10.34
2024-04-25T08:28:03.396Z,10.40
2024-04-25T08:30:30.389Z,10.58
2024-04-25T08:32:57.567Z,10.26
2024-04-25T08:35:24.699Z,10.66
2024-04-25T08:37:51.838Z,10.74
2024-04-25T08:40:18.846Z,10.97
2024-04-25T08:42:45.859Z,11.01
2024-04-25T08:45:12.866Z,10.76
2024-04-25T08:47:39.927Z,10.91
2024-04-25T08:50:06.989Z,10.71
2024-04-25T08:52:34.042Z,10.81
2024-04-25T08:55:01.037Z,11.04
2024-04-25T08:57:28.069Z,11.32
2024-04-25T08:59:55.062Z,11.68
2024-04-25T09:02:22.183Z,13.28
2024-04-25T09:04:49.203Z,14.36
2024-04-25T09:07:16.191Z,15.62
2024-04-25T09:09:43.201Z,16.17
2024-04-25T09:12:10.279Z,16.33
2024-04-25T09:14:37.366Z,15.71
2024-04-25T09:17:04.376Z,17.33
2024-04-25T09:19:31.368Z,17.89
2024-04-25T09:21:58.388Z,18.28
2024-04-25T09:24:25.423Z,18.41
2024-04-25T09:26:52.497Z,18.48
2024-04-25T09:29:19.517Z,17.95
2024-04-25T09:31:46.554Z,18.26
2024-04-25T09:34:13.598Z,18.34
2024-04-25T09:36:40.629Z,17.60
2024-04-25T09:39:07.632Z,17.10
2024-04-25T09:41:34.645Z,16.96
2024-04-25T09:44:01.690Z,17.09
2024-04-25T09:46:28.853Z,17.38
2024-04-25T09:48:55.871Z,17.61
2024-04-25T09:51:22.927Z,17.60
2024-04-25T09:53:49.927Z,17.16
2024-04-25T09:56:16.976Z,15.50
2024-04-25T09:58:44.005Z,15.12
2024-04-25T10:01:11.095Z,15.62
2024-04-25T10:03:38.165Z,17.04
2024-04-25T10:06:05.181Z,16.73
2024-04-25T10:08:32.215Z,16.55
2024-04-25T10:11:03.046Z,15.54
2024-04-25T10:13:31.680Z,15.38
2024-04-25T10:15:58.706Z,16.77
2024-04-25T10:18:25.868Z,17.68
2024-04-25T10:20:52.979Z,17.76
2024-04-25T10:23:20.048Z,18.06
2024-04-25T10:25:47.051Z,18.46
2024-04-25T10:28:14.067Z,18.80
2024-04-25T10:30:41.063Z,17.21
2024-04-25T10:33:08.132Z,17.70
2024-04-25T10:35:35.230Z,17.40
2024-04-25T10:38:02.311Z,16.70
2024-04-25T10:40:29.364Z,17.30
2024-04-25T10:42:57.518Z,16.24
2024-04-25T10:45:25.707Z,16.23
2024-04-25T10:47:52.852Z,17.09
2024-04-25T10:50:19.954Z,16.30
2024-04-25T10:52:47.027Z,16.74
2024-04-25T10:55:14.026Z,17.37
2024-04-25T10:57:41.018Z,17.57
2024-04-25T11:00:08.033Z,18.06
2024-04-25T11:02:35.251Z,17.22
2024-04-25T11:05:02.408Z,16.53
2024-04-25T11:07:29.407Z,16.59
2024-04-25T11:09:56.395Z,16.27
2024-04-25T11:12:23.393Z,15.59
2024-04-25T11:14:50.464Z,15.11
2024-04-25T11:17:17.528Z,15.67
2024-04-25T11:19:49.508Z,15.83
2024-04-25T11:22:29.717Z,15.85
2024-04-25T11:25:02.814Z,16.13
2024-04-25T11:27:29.871Z,14.83
2024-04-25T11:29:56.852Z,13.82
2024-04-25T11:32:23.944Z,13.90
2024-04-25T11:34:51.003Z,13.85
2024-04-25T11:37:18.008Z,13.69
2024-04-25T11:39:45.053Z,14.05
2024-04-25T11:42:12.060Z,14.76
2024-04-25T11:44:39.158Z,14.87
2024-04-25T11:47:06.263Z,15.03
2024-04-25T11:49:33.280Z,14.12
2024-04-25T11:52:00.269Z,14.04
2024-04-25T11:54:27.315Z,14.19
2024-04-25T11:56:54.402Z,13.99
2024-04-25T11:59:21.495Z,14.41
2024-04-25T12:01:50.952Z,13.46
2024-04-25T12:04:19.990Z,13.42
2024-04-25T12:06:47.016Z,13.39
2024-04-25T12:09:14.097Z,12.79
2024-04-25T12:11:41.338Z,12.76
2024-04-25T12:14:08.741Z,12.82
2024-04-25T12:16:35.833Z,12.75
2024-04-25T12:19:02.870Z,12.81
2024-04-25T12:21:29.878Z,12.68
2024-04-25T12:23:56.977Z,12.93
2024-04-25T12:26:24.014Z,12.73
2024-04-25T12:28:51.003Z,12.97
2024-04-25T12:31:18.108Z,12.61
2024-04-25T12:33:45.284Z,12.81
2024-04-25T12:36:12.358Z,12.50
2024-04-25T12:38:39.460Z,12.64
2024-04-25T12:41:06.523Z,11.82
2024-04-25T12:43:33.532Z,12.50
2024-04-25T12:46:03.688Z,12.64
2024-04-25T12:48:31.513Z,12.47
2024-04-25T12:50:58.803Z,12.68
2024-04-25T12:53:25.961Z,12.81
2024-04-25T12:55:53.004Z,12.53
2024-04-25T12:58:20.043Z,12.88
2024-04-25T13:00:47.150Z,12.95
2024-04-25T13:03:14.334Z,13.16
2024-04-25T13:05:41.399Z,13.11
2024-04-25T13:08:08.412Z,13.65
2024-04-25T13:10:35.420Z,12.98
2024-04-25T13:13:02.405Z,12.79
2024-04-25T13:15:30.151Z,13.49
2024-04-25T13:17:57.607Z,12.65
2024-04-25T13:20:24.844Z,12.65
2024-04-25T13:22:51.879Z,12.67
2024-04-25T13:25:18.976Z,12.96
2024-04-25T13:27:46.089Z,13.18
2024-04-25T13:30:13.124Z,12.75
2024-04-25T13:32:42.962Z,12.68
2024-04-25T13:35:10.680Z,13.34
2024-04-25T13:37:37.751Z,13.46
2024-04-25T13:40:04.922Z,13.61
2024-04-25T13:42:31.918Z,13.86
2024-04-25T13:44:58.955Z,13.61
2024-04-25T13:47:26.087Z,13.12
2024-04-25T13:49:53.156Z,13.36
2024-04-25T13:52:20.153Z,13.94
2024-04-25T13:54:47.233Z,13.85
2024-04-25T13:57:14.283Z,13.64
2024-04-25T13:59:41.400Z,13.71
2024-04-25T14:02:08.414Z,13.82
2024-04-25T14:04:35.504Z,13.73
2024-04-25T14:07:03.941Z,13.89
2024-04-25T14:09:32.028Z,14.21
2024-04-25T14:11:59.139Z,14.61
2024-04-25T14:14:26.285Z,14.76
2024-04-25T14:16:53.312Z,14.35
2024-04-25T14:19:20.360Z,14.26
2024-04-25T14:21:47.448Z,14.24
2024-04-25T14:24:14.445Z,14.25
2024-04-25T14:26:41.558Z,13.39
2024-04-25T14:29:08.601Z,13.84
2024-04-25T14:31:35.612Z,14.30
2024-04-25T14:34:02.861Z,14.12
2024-04-25T14:36:29.944Z,14.04
2024-04-25T14:38:57.034Z,13.76
2024-04-25T14:41:24.202Z,14.07
2024-04-25T14:43:55.407Z,13.98
2024-04-25T14:46:25.588Z,13.45
2024-04-25T14:48:52.697Z,13.96
2024-04-25T14:51:19.735Z,13.90
2024-04-25T14:53:47.014Z,14.33
2024-04-25T14:56:14.139Z,14.58
2024-04-25T14:58:41.194Z,14.10
2024-04-25T15:01:08.259Z,14.26
2024-04-25T15:03:35.308Z,14.35
2024-04-25T15:06:02.347Z,15.06
2024-04-25T15:08:29.341Z,15.45
2024-04-25T15:10:56.394Z,14.73
2024-04-25T15:13:23.384Z,14.41
2024-04-25T15:15:50.391Z,14.96
2024-04-25T15:18:17.496Z,14.37
2024-04-25T15:20:44.575Z,15.09
2024-04-25T15:23:11.616Z,15.32
2024-04-25T15:25:38.621Z,15.39
2024-04-25T15:28:05.693Z,14.97
2024-04-25T15:30:32.716Z,14.92
2024-04-25T15:33:00.019Z,14.58
2024-04-25T15:35:27.222Z,14.53
2024-04-25T15:37:54.319Z,14.52
2024-04-25T15:40:21.348Z,14.81
2024-04-25T15:42:48.352Z,15.35
2024-04-25T15:45:15.328Z,15.85
2024-04-25T15:47:42.458Z,15.84
2024-04-25T15:50:09.487Z,15.40
2024-04-25T15:52:36.466Z,14.96
2024-04-25T15:55:03.503Z,15.25
2024-04-25T15:57:30.492Z,15.09
2024-04-25T15:59:57.543Z,15.27
2024-04-25T16:02:24.753Z,15.47
2024-04-25T16:04:52.336Z,15.34
2024-04-25T16:07:19.468Z,14.78
2024-04-25T16:09:46.555Z,14.65
2024-04-25T16:12:13.663Z,14.59
2024-04-25T16:14:40.738Z,14.71
2024-04-25T16:17:07.761Z,15.01
2024-04-25T16:19:34.771Z,14.79
2024-04-25T16:22:01.777Z,14.95
2024-04-25T16:24:28.791Z,14.86
2024-04-25T16:26:55.874Z,15.10
2024-04-25T16:29:22.922Z,15.78
2024-04-25T16:31:49.951Z,16.21
2024-04-25T16:34:17.080Z,15.53
2024-04-25T16:36:44.120Z,15.51
2024-04-25T16:39:11.115Z,15.03
2024-04-25T16:41:38.145Z,15.03
2024-04-25T16:44:05.159Z,15.57
2024-04-25T16:46:32.147Z,15.76
2024-04-25T16:48:59.123Z,15.80
2024-04-25T16:51:26.166Z,16.06
2024-04-25T16:53:53.185Z,16.58
2024-04-25T16:56:20.243Z,16.47
2024-04-25T16:58:47.257Z,16.89
2024-04-25T17:01:14.305Z,16.80
2024-04-25T17:03:44.310Z,17.33
2024-04-25T17:06:11.766Z,16.87
2024-04-25T17:08:38.802Z,16.57
2024-04-25T17:11:05.902Z,16.64
2024-04-25T17:13:32.960Z,16.75
2024-04-25T17:15:59.998Z,16.58
2024-04-25T17:18:27.136Z,16.48
2024-04-25T17:20:54.359Z,16.54
2024-04-25T17:23:21.433Z,15.81
2024-04-25T17:25:48.551Z,15.84
2024-04-25T17:28:15.580Z,16.19
2024-04-25T17:30:42.564Z,16.65
2024-04-25T17:33:09.717Z,16.22
2024-04-25T17:35:36.836Z,16.48
2024-04-25T17:38:04.947Z,16.47
2024-04-25T17:40:31.939Z,16.58
2024-04-25T17:42:58.923Z,16.60
2024-04-25T17:45:25.971Z,16.61
2024-04-25T17:47:53.070Z,16.16
2024-04-25T17:50:20.145Z,16.04
2024-04-25T17:52:47.178Z,15.23
2024-04-25T17:55:14.179Z,15.23
2024-04-25T17:57:41.163Z,14.96
2024-04-25T18:00:08.161Z,14.71
2024-04-25T18:02:35.188Z,14.51
2024-04-25T18:05:02.204Z,14.42
2024-04-25T18:07:29.199Z,14.33
2024-04-25T18:09:56.230Z,14.04
2024-04-25T18:12:23.239Z,13.97
2024-04-25T18:14:50.344Z,14.02
2024-04-25T18:17:17.464Z,13.92
2024-04-25T18:19:44.504Z,13.92
2024-04-25T18:22:11.494Z,13.79
2024-04-25T18:24:38.491Z,13.91
2024-04-25T18:27:05.489Z,14.14
2024-04-25T18:29:32.491Z,14.03
2024-04-25T18:31:59.525Z,14.25
2024-04-25T18:34:26.533Z,14.51
2024-04-25T18:36:53.522Z,14.64
2024-04-25T18:39:20.519Z,14.52
2024-04-25T18:41:47.623Z,14.33
2024-04-25T18:44:14.662Z,14.28
2024-04-25T18:46:41.668Z,14.06
2024-04-25T18:49:08.825Z,13.92
2024-04-25T18:51:35.900Z,13.89
2024-04-25T18:54:02.916Z,13.83
2024-04-25T18:56:29.902Z,13.69
2024-04-25T18:58:56.911Z,13.79
2024-04-25T19:01:23.937Z,13.95
2024-04-25T19:03:50.972Z,14.20
2024-04-25T19:06:18.024Z,14.19
2024-04-25T19:08:45.075Z,14.18
2024-04-25T19:11:12.142Z,14.16
2024-04-25T19:13:39.257Z,14.13
2024-04-25T19:16:06.334Z,13.93
2024-04-25T19:18:36.349Z,14.15
2024-04-25T19:21:03.501Z,14.26
2024-04-25T19:23:30.576Z,14.22
2024-04-25T19:25:57.591Z,14.39
2024-04-25T19:28:25.036Z,14.26
2024-04-25T19:30:52.153Z,14.31
2024-04-25T19:33:19.331Z,14.17
2024-04-25T19:35:46.649Z,14.15
2024-04-25T19:38:13.284Z,14.19
2024-04-25T19:40:39.909Z,14.30
2024-04-25T19:43:06.550Z,14.34
2024-04-25T19:45:33.183Z,14.22
2024-04-25T19:48:00.035Z,14.17
2024-04-25T19:50:26.788Z,14.14
2024-04-25T19:52:53.914Z,14.32
2024-04-25T19:55:20.528Z,14.25
2024-04-25T19:57:47.149Z,14.25
2024-04-25T20:00:13.783Z,14.21
2024-04-25T20:02:40.470Z,13.88
2024-04-25T20:05:07.160Z,14.08
2024-04-25T20:07:33.808Z,14.10
2024-04-25T20:10:00.505Z,14.28
2024-04-25T20:12:27.209Z,14.20
2024-04-25T20:14:53.856Z,14.26
2024-04-25T20:17:20.579Z,14.19
2024-04-25T20:19:47.268Z,14.21
2024-04-25T20:22:13.899Z,14.35
2024-04-25T20:24:40.523Z,14.28
2024-04-25T20:27:07.561Z,14.35
2024-04-25T20:29:34.329Z,14.29
2024-04-25T20:32:00.968Z,14.24
2024-04-25T20:34:27.754Z,14.13
2024-04-25T20:36:54.922Z,14.27
2024-04-25T20:39:21.965Z,14.29
2024-04-25T20:41:49.045Z,14.24
2024-04-25T20:44:16.121Z,14.12
2024-04-25T20:46:43.206Z,14.22
2024-04-25T20:49:10.344Z,14.15
2024-04-25T20:51:37.765Z,13.96
2024-04-25T20:54:05.045Z,14.05
2024-04-25T20:56:31.753Z,14.12
2024-04-25T20:59:01.678Z,14.00
2024-04-25T21:01:28.359Z,14.09
2024-04-25T21:03:55.263Z,14.11
2024-04-25T21:06:22.034Z,14.17
2024-04-25T21:08:48.756Z,14.11
2024-04-25T21:11:15.719Z,14.16
2024-04-25T21:13:42.366Z,14.26
2024-04-25T21:16:09.000Z,14.31
2024-04-25T21:18:35.686Z,14.29
2024-04-25T21:21:04.718Z,14.14
2024-04-25T21:23:31.690Z,14.10
2024-04-25T21:26:01.460Z,14.11
2024-04-25T21:28:28.945Z,14.23
2024-04-25T21:30:55.637Z,14.18
2024-04-25T21:33:22.311Z,13.90
2024-04-25T21:35:49.190Z,14.08
2024-04-25T21:38:15.831Z,14.20
2024-04-25T21:40:42.433Z,14.25
2024-04-25T21:43:09.085Z,14.27
2024-04-25T21:45:35.767Z,14.14
2024-04-25T21:48:02.568Z,14.02
2024-04-25T21:50:29.376Z,13.92
2024-04-25T21:52:56.384Z,13.87
2024-04-25T21:55:23.620Z,13.89
2024-04-25T21:57:50.624Z,13.99
2024-04-25T22:00:17.773Z,14.09
2024-04-25T22:02:44.867Z,14.23
2024-04-25T22:05:12.155Z,14.31
2024-04-25T22:07:39.181Z,14.27
2024-04-25T22:10:06.590Z,14.03
2024-04-25T22:12:33.806Z,14.07
2024-04-25T22:15:01.007Z,14.17
2024-04-25T22:17:27.767Z,14.22
2024-04-25T22:19:54.419Z,14.27
2024-04-25T22:22:21.069Z,14.25
2024-04-25T22:24:47.726Z,14.00
2024-04-25T22:27:14.377Z,14.15
2024-04-25T22:29:41.096Z,13.90
2024-04-25T22:32:07.770Z,13.87
2024-04-25T22:34:34.418Z,13.47
2024-04-25T22:37:01.079Z,13.65
2024-04-25T22:39:27.703Z,13.65
2024-04-25T22:41:54.409Z,13.81
2024-04-25T22:44:21.107Z,13.82
2024-04-25T22:46:47.807Z,13.98
2024-04-25T22:49:14.594Z,13.99
2024-04-25T22:51:41.299Z,14.16
2024-04-25T22:54:07.980Z,14.22
2024-04-25T22:56:34.664Z,14.20
2024-04-25T22:59:01.316Z,14.35
2024-04-25T23:01:27.931Z,14.39
2024-04-25T23:03:54.605Z,14.47
2024-04-25T23:06:21.236Z,14.52
2024-04-25T23:08:47.879Z,14.58
2024-04-25T23:11:14.502Z,14.55
2024-04-25T23:13:41.140Z,14.40
2024-04-25T23:16:08.216Z,14.45
2024-04-25T23:18:34.958Z,14.27
2024-04-25T23:21:01.873Z,14.39
2024-04-25T23:23:28.542Z,14.42
2024-04-25T23:25:55.203Z,14.30
2024-04-25T23:28:21.787Z,14.36
2024-04-25T23:30:48.448Z,14.33
2024-04-25T23:33:15.167Z,14.17
2024-04-25T23:35:41.848Z,14.06
2024-04-25T23:38:08.512Z,14.12
2024-04-25T23:40:35.138Z,14.06
2024-04-25T23:43:01.787Z,13.59
2024-04-25T23:45:28.427Z,13.79
2024-04-25T23:47:55.091Z,13.68
2024-04-25T23:50:21.820Z,13.67
2024-04-25T23:52:48.508Z,13.58
2024-04-25T23:55:15.126Z,13.62
2024-04-25T23:57:41.779Z,13.45
